sensor_id;sensor_type;location;lat;lon;timestamp;pressure;altitude;pressure_sealevel;temperature;humidity
29569;BME280;16501;51.462;14.346;2022-07-29T00:01:45;100416.75;;;17.87;48.10
29569;BME280;16501;51.462;14.346;2022-07-29T00:04:10;100419.31;;;17.85;47.92
29569;BME280;16501;51.462;14.346;2022-07-29T00:06:36;100432.72;;;17.85;47.30
29569;BME280;16501;51.462;14.346;2022-07-29T00:09:01;100426.53;;;17.86;47.76
29569;BME280;16501;51.462;14.346;2022-07-29T00:11:27;100416.47;;;17.80;47.74
29569;BME280;16501;51.462;14.346;2022-07-29T00:13:52;100435.53;;;17.85;47.48
29569;BME280;16501;51.462;14.346;2022-07-29T00:16:17;100410.03;;;17.79;47.43
29569;BME280;16501;51.462;14.346;2022-07-29T00:18:42;100395.63;;;17.66;47.36
29569;BME280;16501;51.462;14.346;2022-07-29T00:21:08;100388.19;;;17.63;47.70
29569;BME280;16501;51.462;14.346;2022-07-29T00:23:33;100367.34;;;17.49;48.17
29569;BME280;16501;51.462;14.346;2022-07-29T00:25:58;100406.72;;;17.69;48.41
29569;BME280;16501;51.462;14.346;2022-07-29T00:28:23;100404.16;;;17.60;48.46
29569;BME280;16501;51.462;14.346;2022-07-29T00:30:49;100391.06;;;17.46;48.97
29569;BME280;16501;51.462;14.346;2022-07-29T00:33:14;100370.72;;;17.36;48.95
29569;BME280;16501;51.462;14.346;2022-07-29T00:35:39;100375.63;;;17.36;49.01
29569;BME280;16501;51.462;14.346;2022-07-29T00:38:15;100376.91;;;17.34;49.31
29569;BME280;16501;51.462;14.346;2022-07-29T00:40:41;100372.81;;;17.24;49.23
29569;BME280;16501;51.462;14.346;2022-07-29T00:43:07;100379.47;;;17.32;49.73
29569;BME280;16501;51.462;14.346;2022-07-29T00:45:33;100367.16;;;17.24;49.79
29569;BME280;16501;51.462;14.346;2022-07-29T00:47:58;100359.94;;;17.18;50.17
29569;BME280;16501;51.462;14.346;2022-07-29T00:50:24;100382.81;;;17.31;50.89
29569;BME280;16501;51.462;14.346;2022-07-29T00:52:50;100376.91;;;17.29;50.96
29569;BME280;16501;51.462;14.346;2022-07-29T00:55:16;100365.84;;;17.20;51.68
29569;BME280;16501;51.462;14.346;2022-07-29T00:57:43;100356.59;;;17.08;51.89
29569;BME280;16501;51.462;14.346;2022-07-29T01:00:12;100371.53;;;17.20;52.19
29569;BME280;16501;51.462;14.346;2022-07-29T01:02:37;100358.13;;;16.98;52.24
29569;BME280;16501;51.462;14.346;2022-07-29T01:05:04;100348.09;;;16.91;52.52
29569;BME280;16501;51.462;14.346;2022-07-29T01:07:30;100362.75;;;17.06;52.21
29569;BME280;16501;51.462;14.346;2022-07-29T01:09:57;100346.53;;;17.01;53.17
29569;BME280;16501;51.462;14.346;2022-07-29T01:12:25;100347.31;;;17.07;52.90
29569;BME280;16501;51.462;14.346;2022-07-29T01:14:52;100317.47;;;16.89;53.02
29569;BME280;16501;51.462;14.346;2022-07-29T01:20:18;100349.13;;;16.93;53.50
29569;BME280;16501;51.462;14.346;2022-07-29T01:25:49;100340.38;;;16.97;53.41
29569;BME280;16501;51.462;14.346;2022-07-29T01:28:39;100349.13;;;17.05;52.91
29569;BME280;16501;51.462;14.346;2022-07-29T01:31:10;100340.13;;;16.95;53.13
29569;BME280;16501;51.462;14.346;2022-07-29T01:33:41;100332.16;;;16.88;53.68
29569;BME280;16501;51.462;14.346;2022-07-29T01:36:17;100313.84;;;16.89;53.54
29569;BME280;16501;51.462;14.346;2022-07-29T01:38:46;100307.94;;;16.87;53.87
29569;BME280;16501;51.462;14.346;2022-07-29T01:41:16;100317.22;;;16.99;53.58
29569;BME280;16501;51.462;14.346;2022-07-29T01:43:56;100326.72;;;17.01;53.36
29569;BME280;16501;51.462;14.346;2022-07-29T01:46:32;100311.03;;;16.89;53.23
29569;BME280;16501;51.462;14.346;2022-07-29T01:49:11;100292.25;;;16.69;53.46
29569;BME280;16501;51.462;14.346;2022-07-29T01:52:01;100321.09;;;16.84;53.60
29569;BME280;16501;51.462;14.346;2022-07-29T01:57:00;100314.34;;;16.82;53.60
29569;BME280;16501;51.462;14.346;2022-07-29T01:59:29;100311.78;;;16.72;54.88
29569;BME280;16501;51.462;14.346;2022-07-29T02:01:57;100306.63;;;16.76;53.98
29569;BME280;16501;51.462;14.346;2022-07-29T02:04:23;100302.78;;;16.85;53.57
29569;BME280;16501;51.462;14.346;2022-07-29T02:06:52;100317.22;;;16.93;53.52
29569;BME280;16501;51.462;14.346;2022-07-29T02:09:19;100299.69;;;16.83;53.61
29569;BME280;16501;51.462;14.346;2022-07-29T02:11:51;100298.66;;;16.92;53.61
29569;BME280;16501;51.462;14.346;2022-07-29T02:14:22;100291.44;;;16.80;53.50
29569;BME280;16501;51.462;14.346;2022-07-29T02:16:50;100285.53;;;16.77;54.12
29569;BME280;16501;51.462;14.346;2022-07-29T02:19:18;100280.66;;;16.72;53.86
29569;BME280;16501;51.462;14.346;2022-07-29T02:21:44;100302.53;;;16.89;53.88
29569;BME280;16501;51.462;14.346;2022-07-29T02:24:11;100308.19;;;16.89;54.08
29569;BME280;16501;51.462;14.346;2022-07-29T02:26:39;100293.78;;;16.75;54.06
29569;BME280;16501;51.462;14.346;2022-07-29T02:29:06;100287.84;;;16.73;54.33
29569;BME280;16501;51.462;14.346;2022-07-29T02:31:34;100281.44;;;16.67;54.24
29569;BME280;16501;51.462;14.346;2022-07-29T02:34:06;100303.78;;;16.59;53.19
29569;BME280;16501;51.462;14.346;2022-07-29T02:36:34;100267.75;;;16.32;53.86
29569;BME280;16501;51.462;14.346;2022-07-29T02:39:00;100307.16;;;16.47;54.87
29569;BME280;16501;51.462;14.346;2022-07-29T02:41:31;100286.56;;;16.35;54.99
29569;BME280;16501;51.462;14.346;2022-07-29T02:44:02;100315.38;;;16.50;54.61
29569;BME280;16501;51.462;14.346;2022-07-29T02:46:32;100305.84;;;16.42;54.54
29569;BME280;16501;51.462;14.346;2022-07-29T02:49:13;100308.97;;;16.44;54.89
29569;BME280;16501;51.462;14.346;2022-07-29T02:52:10;100316.16;;;16.34;54.72
29569;BME280;16501;51.462;14.346;2022-07-29T02:54:41;100294.25;;;16.23;55.36
29569;BME280;16501;51.462;14.346;2022-07-29T02:57:14;100311.50;;;16.31;55.44
29569;BME280;16501;51.462;14.346;2022-07-29T02:59:45;100316.63;;;16.21;55.92
29569;BME280;16501;51.462;14.346;2022-07-29T03:02:13;100299.13;;;16.11;56.10
29569;BME280;16501;51.462;14.346;2022-07-29T03:04:40;100297.31;;;16.02;54.97
29569;BME280;16501;51.462;14.346;2022-07-29T03:07:07;100310.69;;;16.08;54.75
29569;BME280;16501;51.462;14.346;2022-07-29T03:09:33;100305.28;;;16.04;54.49
29569;BME280;16501;51.462;14.346;2022-07-29T03:12:00;100297.31;;;16.02;54.22
29569;BME280;16501;51.462;14.346;2022-07-29T03:14:26;100310.16;;;16.03;54.55
29569;BME280;16501;51.462;14.346;2022-07-29T03:16:51;100306.81;;;15.99;54.82
29569;BME280;16501;51.462;14.346;2022-07-29T03:19:18;100300.41;;;16.05;54.31
29569;BME280;16501;51.462;14.346;2022-07-29T03:21:44;100318.19;;;16.22;54.31
29569;BME280;16501;51.462;14.346;2022-07-29T03:24:09;100339.25;;;16.15;53.85
29569;BME280;16501;51.462;14.346;2022-07-29T03:26:34;100317.13;;;16.08;53.89
29569;BME280;16501;51.462;14.346;2022-07-29T03:28:59;100305.03;;;16.13;54.09
29569;BME280;16501;51.462;14.346;2022-07-29T03:31:25;100288.31;;;16.10;54.26
29569;BME280;16501;51.462;14.346;2022-07-29T03:33:50;100294.25;;;16.12;54.27
29569;BME280;16501;51.462;14.346;2022-07-29T03:36:15;100311.75;;;16.21;54.05
29569;BME280;16501;51.462;14.346;2022-07-29T03:38:42;100311.75;;;16.21;54.62
29569;BME280;16501;51.462;14.346;2022-07-29T03:41:10;100283.44;;;16.05;53.66
29569;BME280;16501;51.462;14.346;2022-07-29T03:43:38;100281.09;;;16.03;54.08
29569;BME280;16501;51.462;14.346;2022-07-29T03:46:09;100311.47;;;16.14;54.45
29569;BME280;16501;51.462;14.346;2022-07-29T03:48:37;100309.41;;;16.14;55.25
29569;BME280;16501;51.462;14.346;2022-07-29T03:51:05;100288.59;;;16.06;54.94
29569;BME280;16501;51.462;14.346;2022-07-29T03:53:31;100295.25;;;16.09;54.98
29569;BME280;16501;51.462;14.346;2022-07-29T03:55:59;100300.16;;;16.08;54.46
29569;BME280;16501;51.462;14.346;2022-07-29T03:58:26;100290.09;;;16.07;53.98
29569;BME280;16501;51.462;14.346;2022-07-29T04:00:56;100287.25;;;15.96;53.66
29569;BME280;16501;51.462;14.346;2022-07-29T04:03:22;100276.47;;;15.94;53.27
29569;BME280;16501;51.462;14.346;2022-07-29T04:05:59;100308.13;;;16.10;53.66
29569;BME280;16501;51.462;14.346;2022-07-29T04:08:24;100291.91;;;15.99;53.86
29569;BME280;16501;51.462;14.346;2022-07-29T04:10:49;100291.16;;;16.04;53.81
29569;BME280;16501;51.462;14.346;2022-07-29T04:13:16;100295.25;;;15.97;53.66
29569;BME280;16501;51.462;14.346;2022-07-29T04:15:42;100289.84;;;15.94;54.31
29569;BME280;16501;51.462;14.346;2022-07-29T04:18:07;100288.03;;;16.02;54.57
29569;BME280;16501;51.462;14.346;2022-07-29T04:20:33;100273.13;;;15.90;54.52
29569;BME280;16501;51.462;14.346;2022-07-29T04:22:58;100302.47;;;16.04;54.49
29569;BME280;16501;51.462;14.346;2022-07-29T04:25:23;100276.47;;;15.89;55.16
29569;BME280;16501;51.462;14.346;2022-07-29T04:27:49;100308.13;;;16.10;54.99
29569;BME280;16501;51.462;14.346;2022-07-29T04:30:26;100290.09;;;15.90;54.73
29569;BME280;16501;51.462;14.346;2022-07-29T04:32:51;100299.34;;;15.96;54.28
29569;BME280;16501;51.462;14.346;2022-07-29T04:35:18;100287.50;;;15.92;54.32
29569;BME280;16501;51.462;14.346;2022-07-29T04:37:43;100296.53;;;16.02;54.79
29569;BME280;16501;51.462;14.346;2022-07-29T04:40:08;100259.72;;;15.79;55.06
29569;BME280;16501;51.462;14.346;2022-07-29T04:42:34;100291.88;;;15.93;54.19
29569;BME280;16501;51.462;14.346;2022-07-29T04:44:59;100303.97;;;15.99;54.13
29569;BME280;16501;51.462;14.346;2022-07-29T04:47:24;100299.91;;;16.06;54.80
29569;BME280;16501;51.462;14.346;2022-07-29T04:49:49;100278.50;;;15.88;54.52
29569;BME280;16501;51.462;14.346;2022-07-29T04:52:15;100290.59;;;15.94;54.66
29569;BME280;16501;51.462;14.346;2022-07-29T04:54:40;100298.84;;;15.98;54.83
29569;BME280;16501;51.462;14.346;2022-07-29T04:57:05;100294.44;;;15.97;55.28
29569;BME280;16501;51.462;14.346;2022-07-29T04:59:30;100299.91;;;16.06;55.39
29569;BME280;16501;51.462;14.346;2022-07-29T05:01:56;100292.94;;;16.07;55.49
29569;BME280;16501;51.462;14.346;2022-07-29T05:04:21;100289.09;;;16.05;55.33
29569;BME280;16501;51.462;14.346;2022-07-29T05:06:46;100308.13;;;16.15;54.97
29569;BME280;16501;51.462;14.346;2022-07-29T05:09:12;100253.03;;;15.82;55.33
29569;BME280;16501;51.462;14.346;2022-07-29T05:11:37;100274.69;;;16.02;55.06
29569;BME280;16501;51.462;14.346;2022-07-29T05:14:02;100286.78;;;16.14;55.15
29569;BME280;16501;51.462;14.346;2022-07-29T05:16:27;100281.41;;;16.22;54.64
29569;BME280;16501;51.462;14.346;2022-07-29T05:18:53;100292.47;;;16.31;54.96
29569;BME280;16501;51.462;14.346;2022-07-29T05:21:18;100288.63;;;16.29;54.74
29569;BME280;16501;51.462;14.346;2022-07-29T05:23:43;100306.63;;;16.37;54.93
29569;BME280;16501;51.462;14.346;2022-07-29T05:26:08;100285.00;;;16.28;54.93
29569;BME280;16501;51.462;14.346;2022-07-29T05:28:34;100295.81;;;16.30;54.96
29569;BME280;16501;51.462;14.346;2022-07-29T05:31:02;100292.97;;;16.30;55.12
29569;BME280;16501;51.462;14.346;2022-07-29T05:33:28;100295.84;;;16.35;54.89
29569;BME280;16501;51.462;14.346;2022-07-29T05:35:53;100261.84;;;16.24;54.22
29569;BME280;16501;51.462;14.346;2022-07-29T05:38:18;100288.34;;;16.44;54.12
29569;BME280;16501;51.462;14.346;2022-07-29T05:40:43;100305.59;;;16.63;54.39
29569;BME280;16501;51.462;14.346;2022-07-29T05:43:09;100312.31;;;16.65;53.66
29569;BME280;16501;51.462;14.346;2022-07-29T05:45:36;100287.88;;;16.56;54.23
29569;BME280;16501;51.462;14.346;2022-07-29T05:48:03;100294.81;;;16.72;54.83
29569;BME280;16501;51.462;14.346;2022-07-29T05:50:29;100292.75;;;16.73;54.48
29569;BME280;16501;51.462;14.346;2022-07-29T05:52:54;100292.72;;;16.78;54.37
29569;BME280;16501;51.462;14.346;2022-07-29T05:55:19;100289.94;;;16.84;54.17
29569;BME280;16501;51.462;14.346;2022-07-29T05:57:44;100300.97;;;16.99;53.85
29569;BME280;16501;51.462;14.346;2022-07-29T06:00:10;100310.00;;;16.98;54.04
29569;BME280;16501;51.462;14.346;2022-07-29T06:02:36;100291.47;;;16.96;54.29
29569;BME280;16501;51.462;14.346;2022-07-29T06:05:01;100285.00;;;16.96;53.52
29569;BME280;16501;51.462;14.346;2022-07-29T06:07:26;100275.25;;;16.97;53.60
29569;BME280;16501;51.462;14.346;2022-07-29T06:09:52;100306.59;;;17.22;54.05
29569;BME280;16501;51.462;14.346;2022-07-29T06:12:17;100288.84;;;17.21;53.74
29569;BME280;16501;51.462;14.346;2022-07-29T06:14:42;100291.88;;;17.34;53.69
29569;BME280;16501;51.462;14.346;2022-07-29T06:17:08;100297.72;;;17.53;53.39
29569;BME280;16501;51.462;14.346;2022-07-29T06:19:36;100322.63;;;17.83;51.99
29569;BME280;16501;51.462;14.346;2022-07-29T06:22:01;100288.41;;;17.70;51.55
29569;BME280;16501;51.462;14.346;2022-07-29T06:24:27;100317.72;;;17.89;51.65
29569;BME280;16501;51.462;14.346;2022-07-29T06:26:52;100290.44;;;17.75;52.20
29569;BME280;16501;51.462;14.346;2022-07-29T06:29:17;100289.34;;;17.89;51.74
29569;BME280;16501;51.462;14.346;2022-07-29T06:31:43;100305.53;;;18.00;51.97
29569;BME280;16501;51.462;14.346;2022-07-29T06:34:08;100319.16;;;18.13;51.79
29569;BME280;16501;51.462;14.346;2022-07-29T06:36:35;100313.56;;;17.96;50.79
29569;BME280;16501;51.462;14.346;2022-07-29T06:39:04;100321.00;;;18.05;51.31
29569;BME280;16501;51.462;14.346;2022-07-29T06:41:29;100325.56;;;18.19;51.52
29569;BME280;16501;51.462;14.346;2022-07-29T06:43:54;100303.22;;;18.04;51.44
29569;BME280;16501;51.462;14.346;2022-07-29T06:46:21;100323.00;;;18.16;51.26
29569;BME280;16501;51.462;14.346;2022-07-29T06:48:47;100334.34;;;18.16;50.86
29569;BME280;16501;51.462;14.346;2022-07-29T06:51:13;100320.72;;;18.08;51.47
29569;BME280;16501;51.462;14.346;2022-07-29T06:53:39;100327.91;;;18.15;50.89
29569;BME280;16501;51.462;14.346;2022-07-29T06:56:06;100314.53;;;18.10;50.82
29569;BME280;16501;51.462;14.346;2022-07-29T06:58:33;100314.00;;;18.06;51.17
29569;BME280;16501;51.462;14.346;2022-07-29T07:01:01;100343.09;;;18.18;51.38
29569;BME280;16501;51.462;14.346;2022-07-29T07:03:26;100329.72;;;18.18;51.13
29569;BME280;16501;51.462;14.346;2022-07-29T07:05:53;100327.41;;;18.11;51.42
29569;BME280;16501;51.462;14.346;2022-07-29T07:08:19;100332.50;;;18.24;51.30
29569;BME280;16501;51.462;14.346;2022-07-29T07:10:46;100327.34;;;18.22;52.19
29569;BME280;16501;51.462;14.346;2022-07-29T07:13:11;100324.50;;;18.22;52.41
29569;BME280;16501;51.462;14.346;2022-07-29T07:15:37;100332.69;;;18.32;51.72
29569;BME280;16501;51.462;14.346;2022-07-29T07:18:03;100291.59;;;18.08;51.38
29569;BME280;16501;51.462;14.346;2022-07-29T07:20:29;100320.81;;;18.33;51.84
29569;BME280;16501;51.462;14.346;2022-07-29T07:22:54;100313.34;;;18.30;52.04
29569;BME280;16501;51.462;14.346;2022-07-29T07:25:19;100321.56;;;18.39;51.52
29569;BME280;16501;51.462;14.346;2022-07-29T07:27:45;100303.50;;;18.37;51.79
29569;BME280;16501;51.462;14.346;2022-07-29T07:30:10;100299.38;;;18.38;51.05
29569;BME280;16501;51.462;14.346;2022-07-29T07:32:36;100327.09;;;18.56;51.80
29569;BME280;16501;51.462;14.346;2022-07-29T07:35:03;100318.59;;;18.56;51.91
29569;BME280;16501;51.462;14.346;2022-07-29T07:37:29;100310.34;;;18.53;51.59
29569;BME280;16501;51.462;14.346;2022-07-29T07:39:54;100321.94;;;18.60;50.54
29569;BME280;16501;51.462;14.346;2022-07-29T07:42:19;100319.91;;;18.55;50.31
29569;BME280;16501;51.462;14.346;2022-07-29T07:44:45;100333.75;;;18.64;50.86
29569;BME280;16501;51.462;14.346;2022-07-29T07:47:11;100320.31;;;18.71;50.75
29569;BME280;16501;51.462;14.346;2022-07-29T07:49:36;100333.19;;;18.72;50.22
29569;BME280;16501;51.462;14.346;2022-07-29T07:52:11;100328.44;;;18.86;50.35
29569;BME280;16501;51.462;14.346;2022-07-29T07:54:36;100328.38;;;18.97;50.52
29569;BME280;16501;51.462;14.346;2022-07-29T07:57:01;100289.00;;;18.76;50.20
29569;BME280;16501;51.462;14.346;2022-07-29T07:59:26;100315.69;;;18.98;50.82
29569;BME280;16501;51.462;14.346;2022-07-29T08:01:52;100324.34;;;19.11;51.39
29569;BME280;16501;51.462;14.346;2022-07-29T08:04:17;100311.94;;;19.09;50.05
29569;BME280;16501;51.462;14.346;2022-07-29T08:06:42;100329.06;;;19.28;49.66
29569;BME280;16501;51.462;14.346;2022-07-29T08:09:07;100315.06;;;19.11;50.13
29569;BME280;16501;51.462;14.346;2022-07-29T08:11:33;100319.78;;;19.27;49.77
29569;BME280;16501;51.462;14.346;2022-07-29T08:13:58;100313.88;;;19.25;49.73
29569;BME280;16501;51.462;14.346;2022-07-29T08:16:26;100316.94;;;19.27;49.53
29569;BME280;16501;51.462;14.346;2022-07-29T08:18:51;100328.44;;;19.40;48.83
29569;BME280;16501;51.462;14.346;2022-07-29T08:21:17;100321.19;;;19.39;49.54
29569;BME280;16501;51.462;14.346;2022-07-29T08:23:45;100316.53;;;19.42;49.72
29569;BME280;16501;51.462;14.346;2022-07-29T08:26:30;100326.47;;;19.54;48.96
29569;BME280;16501;51.462;14.346;2022-07-29T08:28:55;100326.84;;;19.64;49.86
29569;BME280;16501;51.462;14.346;2022-07-29T08:31:20;100343.53;;;19.79;50.67
29569;BME280;16501;51.462;14.346;2022-07-29T08:33:46;100314.66;;;19.69;48.53
29569;BME280;16501;51.462;14.346;2022-07-29T08:36:11;100316.06;;;19.82;49.08
29569;BME280;16501;51.462;14.346;2022-07-29T08:38:38;100292.41;;;19.68;49.71
29569;BME280;16501;51.462;14.346;2022-07-29T08:41:03;100318.56;;;19.91;49.72
29569;BME280;16501;51.462;14.346;2022-07-29T08:43:28;100319.47;;;19.99;49.19
29569;BME280;16501;51.462;14.346;2022-07-29T08:45:54;100310.88;;;20.05;49.68
29569;BME280;16501;51.462;14.346;2022-07-29T08:48:22;100313.63;;;20.10;50.34
29569;BME280;16501;51.462;14.346;2022-07-29T08:50:49;100321.13;;;20.27;50.00
29569;BME280;16501;51.462;14.346;2022-07-29T08:53:17;100312.06;;;20.28;49.87
29569;BME280;16501;51.462;14.346;2022-07-29T08:55:45;100326.91;;;20.40;49.23
29569;BME280;16501;51.462;14.346;2022-07-29T08:58:11;100284.00;;;20.19;49.37
29569;BME280;16501;51.462;14.346;2022-07-29T09:00:42;100291.59;;;20.30;48.71
29569;BME280;16501;51.462;14.346;2022-07-29T09:03:08;100290.97;;;20.37;49.71
29569;BME280;16501;51.462;14.346;2022-07-29T09:05:34;100295.63;;;20.53;49.75
29569;BME280;16501;51.462;14.346;2022-07-29T09:08:01;100309.16;;;20.66;49.59
29569;BME280;16501;51.462;14.346;2022-07-29T09:10:27;100303.38;;;20.72;49.77
29569;BME280;16501;51.462;14.346;2022-07-29T09:12:54;100307.50;;;20.90;50.42
29569;BME280;16501;51.462;14.346;2022-07-29T09:15:20;100285.22;;;20.88;50.94
29569;BME280;16501;51.462;14.346;2022-07-29T09:17:47;100294.03;;;21.04;49.72
29569;BME280;16501;51.462;14.346;2022-07-29T09:20:18;100300.91;;;21.08;49.69
29569;BME280;16501;51.462;14.346;2022-07-29T09:22:44;100289.50;;;21.08;49.28
29569;BME280;16501;51.462;14.346;2022-07-29T09:25:14;100290.41;;;21.17;49.96
29569;BME280;16501;51.462;14.346;2022-07-29T09:27:39;100267.47;;;21.09;50.14
29569;BME280;16501;51.462;14.346;2022-07-29T09:30:06;100295.00;;;21.33;50.32
29569;BME280;16501;51.462;14.346;2022-07-29T09:32:33;100297.66;;;21.44;50.35
29569;BME280;16501;51.462;14.346;2022-07-29T09:35:22;100296.25;;;21.51;50.00
29569;BME280;16501;51.462;14.346;2022-07-29T09:37:48;100304.28;;;21.53;50.10
29569;BME280;16501;51.462;14.346;2022-07-29T09:40:15;100291.63;;;21.48;49.77
29569;BME280;16501;51.462;14.346;2022-07-29T09:42:41;100299.97;;;21.59;50.27
29569;BME280;16501;51.462;14.346;2022-07-29T09:45:07;100300.84;;;21.68;49.12
29569;BME280;16501;51.462;14.346;2022-07-29T09:47:45;100280.22;;;21.61;49.17
29569;BME280;16501;51.462;14.346;2022-07-29T09:50:12;100296.41;;;21.80;50.98
29569;BME280;16501;51.462;14.346;2022-07-29T09:52:51;100296.59;;;21.95;49.37
29569;BME280;16501;51.462;14.346;2022-07-29T09:55:17;100302.19;;;22.01;48.28
29569;BME280;16501;51.462;14.346;2022-07-29T09:57:43;100293.63;;;22.01;48.08
29569;BME280;16501;51.462;14.346;2022-07-29T10:00:12;100273.63;;;22.01;48.68
29569;BME280;16501;51.462;14.346;2022-07-29T10:02:38;100275.59;;;22.06;49.58
29569;BME280;16501;51.462;14.346;2022-07-29T10:05:09;100285.78;;;22.28;49.29
29569;BME280;16501;51.462;14.346;2022-07-29T10:07:51;100278.41;;;22.33;49.38
29569;BME280;16501;51.462;14.346;2022-07-29T10:10:27;100271.84;;;22.46;47.81
29569;BME280;16501;51.462;14.346;2022-07-29T10:12:54;100283.47;;;22.69;48.72
29569;BME280;16501;51.462;14.346;2022-07-29T10:15:22;100281.69;;;22.87;47.62
29569;BME280;16501;51.462;14.346;2022-07-29T10:17:48;100267.63;;;22.89;47.44
29569;BME280;16501;51.462;14.346;2022-07-29T10:20:13;100259.88;;;22.97;47.21
29569;BME280;16501;51.462;14.346;2022-07-29T10:22:40;100281.19;;;23.17;46.06
29569;BME280;16501;51.462;14.346;2022-07-29T10:25:06;100275.94;;;23.29;45.40
29569;BME280;16501;51.462;14.346;2022-07-29T10:27:32;100270.34;;;23.52;45.26
29569;BME280;16501;51.462;14.346;2022-07-29T10:29:57;100251.13;;;23.68;45.70
29569;BME280;16501;51.462;14.346;2022-07-29T10:32:43;100262.16;;;24.08;43.18
29569;BME280;16501;51.462;14.346;2022-07-29T10:35:21;100275.59;;;24.28;44.10
29569;BME280;16501;51.462;14.346;2022-07-29T10:38:04;100280.22;;;24.55;44.40
29569;BME280;16501;51.462;14.346;2022-07-29T10:40:47;100278.31;;;24.65;43.83
29569;BME280;16501;51.462;14.346;2022-07-29T10:43:37;100265.34;;;24.72;43.22
29569;BME280;16501;51.462;14.346;2022-07-29T10:46:06;100275.63;;;24.75;42.26
29569;BME280;16501;51.462;14.346;2022-07-29T10:48:32;100256.72;;;24.64;41.70
29569;BME280;16501;51.462;14.346;2022-07-29T10:50:59;100260.38;;;24.64;42.06
29569;BME280;16501;51.462;14.346;2022-07-29T10:56:30;100251.97;;;24.67;42.39
29569;BME280;16501;51.462;14.346;2022-07-29T11:01:46;100236.44;;;25.08;41.56
29569;BME280;16501;51.462;14.346;2022-07-29T11:04:11;100238.88;;;25.19;42.00
29569;BME280;16501;51.462;14.346;2022-07-29T11:09:30;100257.44;;;25.26;39.91
29569;BME280;16501;51.462;14.346;2022-07-29T11:11:56;100243.28;;;25.13;40.76
29569;BME280;16501;51.462;14.346;2022-07-29T11:17:18;100244.44;;;25.10;40.56
29569;BME280;16501;51.462;14.346;2022-07-29T11:19:43;100248.66;;;25.09;40.25
29569;BME280;16501;51.462;14.346;2022-07-29T11:22:10;100249.41;;;25.17;40.00
29569;BME280;16501;51.462;14.346;2022-07-29T11:24:36;100245.19;;;25.18;38.99
29569;BME280;16501;51.462;14.346;2022-07-29T11:27:12;100252.19;;;25.48;37.84
29569;BME280;16501;51.462;14.346;2022-07-29T11:29:48;100249.44;;;25.73;38.44
29569;BME280;16501;51.462;14.346;2022-07-29T11:32:15;100241.91;;;25.85;37.57
29569;BME280;16501;51.462;14.346;2022-07-29T11:34:42;100235.75;;;25.89;37.55
29569;BME280;16501;51.462;14.346;2022-07-29T11:39:42;100241.63;;;26.06;37.20
29569;BME280;16501;51.462;14.346;2022-07-29T11:44:57;100232.47;;;26.50;35.59
29569;BME280;16501;51.462;14.346;2022-07-29T11:47:23;100216.94;;;26.53;34.83
29569;BME280;16501;51.462;14.346;2022-07-29T11:49:49;100206.66;;;26.68;33.70
29569;BME280;16501;51.462;14.346;2022-07-29T11:52:16;100229.81;;;26.95;34.61
29569;BME280;16501;51.462;14.346;2022-07-29T11:54:42;100227.97;;;27.25;35.02
29569;BME280;16501;51.462;14.346;2022-07-29T11:57:08;100208.94;;;27.30;34.27
29569;BME280;16501;51.462;14.346;2022-07-29T11:59:40;100208.22;;;27.56;34.83
29569;BME280;16501;51.462;14.346;2022-07-29T12:02:06;100196.28;;;27.60;33.90
29569;BME280;16501;51.462;14.346;2022-07-29T12:04:32;100235.25;;;27.88;33.12
29569;BME280;16501;51.462;14.346;2022-07-29T12:06:57;100201.25;;;27.77;33.10
29569;BME280;16501;51.462;14.346;2022-07-29T12:09:23;100221.25;;;27.75;33.58
29569;BME280;16501;51.462;14.346;2022-07-29T12:11:57;100221.88;;;27.83;33.48
29569;BME280;16501;51.462;14.346;2022-07-29T12:14:32;100206.44;;;27.61;33.98
29569;BME280;16501;51.462;14.346;2022-07-29T12:16:59;100211.69;;;27.55;34.70
29569;BME280;16501;51.462;14.346;2022-07-29T12:19:25;100206.84;;;27.75;33.98
29569;BME280;16501;51.462;14.346;2022-07-29T12:21:53;100188.63;;;27.72;34.09
29569;BME280;16501;51.462;14.346;2022-07-29T12:24:19;100218.38;;;28.02;33.87
29569;BME280;16501;51.462;14.346;2022-07-29T12:26:54;100204.75;;;28.02;33.32
29569;BME280;16501;51.462;14.346;2022-07-29T12:29:20;100189.47;;;28.10;33.14
29569;BME280;16501;51.462;14.346;2022-07-29T12:31:46;100180.66;;;28.08;32.93
29569;BME280;16501;51.462;14.346;2022-07-29T12:34:13;100149.50;;;27.96;33.20
29569;BME280;16501;51.462;14.346;2022-07-29T12:36:42;100168.94;;;28.06;33.69
29569;BME280;16501;51.462;14.346;2022-07-29T12:39:08;100193.06;;;28.37;33.91
29569;BME280;16501;51.462;14.346;2022-07-29T12:41:34;100183.81;;;28.49;32.66
29569;BME280;16501;51.462;14.346;2022-07-29T12:43:59;100205.16;;;28.73;32.61
29569;BME280;16501;51.462;14.346;2022-07-29T12:46:25;100195.25;;;28.66;32.40
29569;BME280;16501;51.462;14.346;2022-07-29T12:48:52;100199.09;;;28.78;33.09
29569;BME280;16501;51.462;14.346;2022-07-29T12:51:34;100205.50;;;28.96;32.76
29569;BME280;16501;51.462;14.346;2022-07-29T12:54:07;100200.31;;;29.05;32.12
29569;BME280;16501;51.462;14.346;2022-07-29T12:56:33;100178.00;;;29.05;31.94
29569;BME280;16501;51.462;14.346;2022-07-29T12:58:58;100178.31;;;28.90;31.39
29569;BME280;16501;51.462;14.346;2022-07-29T13:01:23;100165.78;;;28.58;33.11
29569;BME280;16501;51.462;14.346;2022-07-29T13:03:51;100188.00;;;28.65;33.32
29569;BME280;16501;51.462;14.346;2022-07-29T13:06:39;100184.09;;;28.43;32.63
29569;BME280;16501;51.462;14.346;2022-07-29T13:09:19;100180.47;;;28.06;33.69